Terminal Aerodrome Forecast
Issued by NWS

Home | Current Version | Previous Version | Text Only | Print | Product List | Glossary On
Versions: 1 2 3 4 5 6 7 8 9 10 11 12 13 14 15 16 17 18 19 20 21 22 23 24 25 26 27 28 29 30 31
000
FTUS45 KSLC 222331
TAFPVU
TAF
KPVU 222331Z 2300/2324 33010KT P6SM -SHRA VCTS SCT080CB BKN100
      TEMPO 2300/2302 32024G34KT 6SM -RA BKN080
     FM230500 30007KT P6SM -SHRA BKN070
     FM231000 VRB05KT P6SM -SHRA BKN060
     FM231800 30010KT P6SM SCT060 BKN100
      AMD LTD TO CLD VIS AND WIND=

USA.gov is the U.S. government's official web portal to all federal, state and local government web resources and services.